Time;durP1;ratioP1;P1;durP2;ratioP2;P2;SDS_P1;SDS_P2;PMS_P1;PMS_P2;Temp;Humidity;BMP_temperature;BMP_pressure;BME280_temperature;BME280_humidity;BME280_pressure;Samples;Min_cycle;Max_cycle;Signal;HPM_P1;HPM_P2
2022/05/15 00:01:49;;;;;;;3.90;2.58;;;;;;;17.98;46.17;94022.50;4988923;28;20048;-72
2022/05/15 00:04:15;;;;;;;3.35;2.72;;;;;;;17.94;46.21;94027.03;4991592;28;20030;-72
2022/05/15 00:06:40;;;;;;;4.10;2.63;;;;;;;17.93;46.51;94038.94;4990666;28;20092;-72
2022/05/15 00:09:05;;;;;;;3.72;2.47;;;;;;;17.87;46.42;94026.88;4994768;28;20038;-72
2022/05/15 00:11:32;;;;;;;4.40;2.70;;;;;;;17.88;45.65;94043.78;4990670;28;20037;-71
2022/05/15 00:14:02;;;;;;;3.33;2.20;;;;;;;17.82;46.46;94037.91;4970794;28;20415;-71
2022/05/15 00:16:29;;;;;;;3.28;2.65;;;;;;;17.82;45.70;94032.53;4985223;28;20057;-72
2022/05/15 00:18:54;;;;;;;6.60;2.65;;;;;;;17.66;46.85;94029.09;4995740;28;20776;-72
2022/05/15 00:21:20;;;;;;;4.68;2.97;;;;;;;17.63;47.39;94037.88;4987065;28;20128;-72
2022/05/15 00:23:45;;;;;;;2.78;2.47;;;;;;;17.50;47.16;94025.69;5002346;28;20084;-73
2022/05/15 00:26:11;;;;;;;3.53;2.20;;;;;;;17.55;47.55;94042.31;4979249;28;20069;-72
2022/05/15 00:28:36;;;;;;;4.38;2.60;;;;;;;17.14;47.39;93989.16;4992111;28;20569;-72
2022/05/15 00:31:03;;;;;;;5.50;2.90;;;;;;;17.45;47.35;94042.09;4990518;28;20037;-72
2022/05/15 00:33:29;;;;;;;4.88;2.50;;;;;;;17.29;47.44;94019.84;4992120;28;20121;-72
2022/05/15 00:35:54;;;;;;;6.82;3.25;;;;;;;17.40;47.55;94045.06;4986695;28;20022;-72
2022/05/15 00:38:20;;;;;;;4.38;2.88;;;;;;;17.45;45.32;94039.41;4998202;28;20034;-73
2022/05/15 00:40:47;;;;;;;3.08;2.33;;;;;;;17.42;44.86;94042.78;4990215;28;20088;-72
2022/05/15 00:43:36;;;;;;;3.92;2.00;;;;;;;17.29;45.29;94039.44;4984505;28;20038;-71
2022/05/15 00:46:04;;;;;;;2.78;2.20;;;;;;;17.20;44.64;94008.50;4994173;28;20042;-72
2022/05/15 00:48:29;;;;;;;3.72;2.30;;;;;;;17.40;44.53;94050.44;4983339;28;20040;-73
2022/05/15 00:50:55;;;;;;;3.25;2.50;;;;;;;17.33;45.43;94039.50;4999774;28;20029;-72
2022/05/15 00:53:21;;;;;;;3.25;2.33;;;;;;;17.30;46.06;94032.16;5001840;28;20101;-73
2022/05/15 00:55:51;;;;;;;3.20;2.65;;;;;;;17.44;44.80;94045.91;4994682;28;20046;-73
2022/05/15 00:58:23;;;;;;;3.97;2.10;;;;;;;17.46;44.51;94039.03;4994048;28;20053;-74
2022/05/15 01:00:49;;;;;;;3.78;2.20;;;;;;;17.46;43.72;94032.88;4979896;28;21775;-73
2022/05/15 01:03:18;;;;;;;2.70;2.30;;;;;;;17.53;44.03;94038.44;5000462;28;20615;-74
2022/05/15 01:05:52;;;;;;;3.30;2.38;;;;;;;17.48;43.88;94017.97;4997629;28;20406;-73
2022/05/15 01:08:18;;;;;;;2.92;2.17;;;;;;;17.65;43.85;94037.53;4994055;28;20030;-73
2022/05/15 01:10:49;;;;;;;2.95;2.63;;;;;;;17.60;44.26;94041.25;5001761;28;20089;-73
2022/05/15 01:13:16;;;;;;;3.30;2.40;;;;;;;17.57;43.41;94041.97;4980842;28;20034;-73
2022/05/15 01:15:43;;;;;;;4.90;2.65;;;;;;;17.70;43.28;94037.25;4989276;28;20029;-74
2022/05/15 01:18:09;;;;;;;4.80;2.60;;;;;;;17.65;43.16;94037.53;4997359;28;20108;-74
2022/05/15 01:20:36;;;;;;;4.03;2.63;;;;;;;17.71;43.26;94038.81;4992294;28;20033;-74
2022/05/15 01:23:02;;;;;;;4.55;2.55;;;;;;;17.70;43.55;94039.97;4998355;28;20046;-72
2022/05/15 01:25:31;;;;;;;4.18;2.22;;;;;;;17.70;43.28;94046.09;5000062;28;20042;-72
2022/05/15 01:28:10;;;;;;;3.17;2.30;;;;;;;17.66;42.93;94039.84;4988752;28;20038;-72
2022/05/15 01:30:40;;;;;;;3.15;2.45;;;;;;;17.15;43.58;93986.16;4990832;28;20030;-72
2022/05/15 01:33:07;;;;;;;4.53;2.17;;;;;;;17.62;43.54;94039.00;4987168;28;20666;-72
2022/05/15 01:35:33;;;;;;;3.53;2.47;;;;;;;17.64;43.26;94042.13;4985852;28;20053;-72
2022/05/15 01:37:58;;;;;;;6.10;2.70;;;;;;;17.65;43.60;94040.97;4974347;28;20366;-72
2022/05/15 01:40:24;;;;;;;2.92;2.10;;;;;;;17.29;43.79;93988.38;4992533;28;20078;-72
2022/05/15 01:42:49;;;;;;;4.45;2.30;;;;;;;17.68;43.74;94040.31;4986556;28;20033;-72
2022/05/15 01:45:15;;;;;;;3.78;2.25;;;;;;;17.66;43.21;94034.47;4982152;28;20057;-72
2022/05/15 01:47:41;;;;;;;3.58;2.90;;;;;;;17.73;43.42;94040.03;4988200;28;20046;-72
2022/05/15 01:50:10;;;;;;;3.45;2.67;;;;;;;17.77;42.69;94040.88;4985923;28;21768;-73
2022/05/15 01:52:36;;;;;;;3.58;2.70;;;;;;;17.73;42.17;94026.56;4993872;28;20437;-72
2022/05/15 01:55:03;;;;;;;2.92;2.35;;;;;;;17.79;42.12;94035.94;4982984;28;20091;-70
2022/05/15 01:57:28;;;;;;;4.97;2.25;;;;;;;17.68;42.33;94040.31;4990081;28;20034;-72
2022/05/15 01:59:54;;;;;;;2.55;1.90;;;;;;;17.64;42.63;94052.13;4976463;28;20084;-72
2022/05/15 02:02:19;;;;;;;4.35;2.30;;;;;;;17.56;42.48;94014.28;4965675;28;20046;-71
2022/05/15 02:04:44;;;;;;;4.72;2.33;;;;;;;17.74;42.24;94043.50;4977538;28;20089;-72
2022/05/15 02:07:10;;;;;;;3.45;2.42;;;;;;;17.66;42.41;94023.72;4972529;28;20041;-72
2022/05/15 02:09:35;;;;;;;4.57;2.13;;;;;;;17.78;42.13;94037.06;4965735;28;20038;-73
2022/05/15 02:12:01;;;;;;;4.10;2.50;;;;;;;17.75;42.92;94035.06;4975236;28;20044;-73
2022/05/15 02:14:26;;;;;;;4.80;2.70;;;;;;;17.81;42.58;94036.34;4978087;28;20034;-72
2022/05/15 02:16:52;;;;;;;3.42;2.30;;;;;;;17.82;42.12;94035.22;4978198;28;20185;-73
2022/05/15 02:19:17;;;;;;;3.55;2.05;;;;;;;17.74;42.08;94028.13;4971064;28;20038;-72
2022/05/15 02:21:44;;;;;;;8.52;2.75;;;;;;;17.68;42.18;94040.31;4977174;28;20194;-72
2022/05/15 02:24:10;;;;;;;4.68;2.83;;;;;;;17.65;42.14;94038.28;4963155;28;20216;-72
2022/05/15 02:26:37;;;;;;;3.85;2.42;;;;;;;17.65;41.98;94040.97;4977211;28;20034;-73
2022/05/15 02:29:03;;;;;;;3.47;2.28;;;;;;;17.67;42.43;94044.13;4969239;28;20050;-73
2022/05/15 02:31:28;;;;;;;2.83;2.25;;;;;;;17.65;42.49;94038.28;4965673;28;20034;-73
2022/05/15 02:33:55;;;;;;;3.45;2.58;;;;;;;17.70;42.29;94048.78;4977195;28;20619;-73
2022/05/15 02:36:20;;;;;;;4.63;2.90;;;;;;;17.75;42.56;94043.13;4961190;28;20046;-72
2022/05/15 02:38:46;;;;;;;5.22;2.58;;;;;;;17.71;43.26;94050.34;4975048;28;20038;-73
2022/05/15 02:41:11;;;;;;;2.13;1.92;;;;;;;17.72;43.38;94049.22;4971906;28;20061;-72
2022/05/15 02:43:37;;;;;;;4.22;3.00;;;;;;;17.75;43.71;94051.19;4988413;28;20065;-72
2022/05/15 02:46:02;;;;;;;4.70;2.30;;;;;;;17.57;43.45;94033.91;4996909;28;20108;-72
2022/05/15 02:51:12;;;;;;;5.10;2.42;;;;;;;17.44;43.82;94056.66;4993262;28;20044;-71
2022/05/15 02:53:44;;;;;;;4.55;2.22;;;;;;;17.44;44.55;94056.66;4998337;28;20463;-72
2022/05/15 02:56:17;;;;;;;2.28;2.05;;;;;;;17.42;44.64;94059.69;4987508;28;20475;-72
2022/05/15 02:58:42;;;;;;;3.70;2.22;;;;;;;17.32;45.03;94059.44;4991476;28;20049;-72
2022/05/15 03:01:08;;;;;;;3.85;2.28;;;;;;;17.37;44.14;94059.19;4991958;28;20608;-72
2022/05/15 03:03:33;;;;;;;3.35;1.92;;;;;;;17.44;44.28;94067.44;5000517;28;20057;-71
2022/05/15 03:05:59;;;;;;;2.80;2.25;;;;;;;17.17;44.54;94040.31;5001170;28;20033;-71
2022/05/15 03:08:25;;;;;;;2.55;2.35;;;;;;;17.31;44.77;94066.72;4997845;28;20030;-71
2022/05/15 03:10:51;;;;;;;4.25;2.20;;;;;;;17.27;45.01;94067.78;4987186;28;20038;-72
2022/05/15 03:13:16;;;;;;;3.10;2.50;;;;;;;17.31;43.53;94063.25;5007457;28;20581;-72
2022/05/15 03:15:42;;;;;;;4.28;2.60;;;;;;;17.34;44.11;94071.44;4985596;28;20128;-72
2022/05/15 03:18:08;;;;;;;2.15;1.95;;;;;;;17.35;44.48;94074.91;5001311;28;20505;-71
2022/05/15 03:20:34;;;;;;;3.15;2.33;;;;;;;17.23;44.76;94050.78;4989015;28;20581;-72
2022/05/15 03:22:59;;;;;;;2.85;2.05;;;;;;;17.30;44.68;94064.41;5006207;28;20105;-72
2022/05/15 03:25:27;;;;;;;7.60;2.55;;;;;;;17.36;44.79;94068.38;5006287;28;21493;-71
2022/05/15 03:27:54;;;;;;;2.80;2.10;;;;;;;17.12;44.99;94045.13;5000754;28;20048;-72
2022/05/15 03:30:20;;;;;;;3.13;2.30;;;;;;;17.31;44.44;94072.09;4991147;28;20520;-73
2022/05/15 03:32:45;;;;;;;2.53;2.10;;;;;;;17.33;45.15;94074.47;5000798;28;20038;-71
2022/05/15 03:35:11;;;;;;;6.55;2.65;;;;;;;17.30;44.60;94075.94;4991949;28;20037;-72
2022/05/15 03:37:38;;;;;;;5.38;3.60;;;;;;;17.23;44.21;94066.91;4989332;28;20030;-74
2022/05/15 03:40:05;;;;;;;5.00;2.15;;;;;;;17.32;44.94;94075.59;4989959;28;20041;-72
2022/05/15 03:42:31;;;;;;;2.10;1.90;;;;;;;17.30;44.51;94061.72;4970148;28;20621;-72
2022/05/15 03:44:57;;;;;;;3.75;2.10;;;;;;;17.34;45.25;94076.03;4981462;28;20266;-72
2022/05/15 03:47:22;;;;;;;3.17;2.47;;;;;;;17.46;43.52;94081.28;4979801;28;20136;-72
2022/05/15 03:49:48;;;;;;;2.53;2.13;;;;;;;17.43;44.77;94077.41;4987419;28;20934;-72
2022/05/15 03:52:14;;;;;;;3.50;2.42;;;;;;;17.37;45.18;94065.34;5003668;28;20049;-72
2022/05/15 03:54:41;;;;;;;5.80;2.53;;;;;;;17.58;43.63;94078.50;4993869;28;20540;-72
2022/05/15 03:57:07;;;;;;;3.35;2.35;;;;;;;17.51;44.03;94056.81;5000943;28;20156;-71
2022/05/15 03:59:35;;;;;;;3.85;2.28;;;;;;;17.67;43.77;94071.00;4989233;28;20551;-72
2022/05/15 04:02:02;;;;;;;4.28;2.40;;;;;;;17.61;43.68;94073.19;4969311;28;20049;-72
2022/05/15 04:04:28;;;;;;;3.17;1.75;;;;;;;17.69;43.49;94084.91;4975057;28;20068;-71
2022/05/15 04:06:53;;;;;;;3.20;1.80;;;;;;;17.70;43.77;94070.28;4979242;28;20049;-72
2022/05/15 04:09:20;;;;;;;3.08;2.05;;;;;;;17.78;43.63;94077.41;4967525;28;20054;-72
2022/05/15 04:11:45;;;;;;;3.80;2.40;;;;;;;17.81;43.61;94068.63;4975096;28;20104;-72
2022/05/15 04:14:11;;;;;;;3.10;2.38;;;;;;;17.88;43.74;94076.84;5002998;28;20034;-74
2022/05/15 04:16:37;;;;;;;4.68;2.10;;;;;;;17.95;44.04;94087.78;4994332;28;20503;-72
2022/05/15 04:19:03;;;;;;;2.88;2.40;;;;;;;18.13;43.52;94087.38;4984231;28;20810;-73
2022/05/15 04:21:36;;;;;;;3.10;2.20;;;;;;;18.04;43.56;94066.81;4992847;28;20089;-72
2022/05/15 04:24:02;;;;;;;3.25;2.47;;;;;;;18.31;43.09;94096.59;4984263;28;20036;-72
2022/05/15 04:26:27;;;;;;;3.67;2.10;;;;;;;18.24;43.58;94099.13;4999233;28;20030;-72
2022/05/15 04:28:53;;;;;;;5.70;2.75;;;;;;;18.39;42.77;94095.59;4999310;28;20049;-72
2022/05/15 04:31:18;;;;;;;3.35;2.20;;;;;;;18.30;43.10;94082.34;4964700;28;20042;-70
2022/05/15 04:33:44;;;;;;;2.63;2.17;;;;;;;18.36;43.34;94080.16;4980713;28;20133;-71
2022/05/15 04:36:09;;;;;;;3.15;2.25;;;;;;;18.53;42.86;94095.09;4978894;28;20106;-72
2022/05/15 04:38:34;;;;;;;2.05;1.85;;;;;;;18.57;41.77;94101.34;4996294;28;20030;-73
2022/05/15 04:41:00;;;;;;;4.50;2.75;;;;;;;18.37;42.69;94079.03;4998329;28;20121;-72
2022/05/15 04:43:25;;;;;;;2.97;1.90;;;;;;;18.55;41.80;94096.28;4989867;28;20026;-72
2022/05/15 04:45:51;;;;;;;3.58;2.03;;;;;;;18.49;42.52;94078.84;4996038;28;20157;-72
2022/05/15 04:48:16;;;;;;;2.33;1.90;;;;;;;18.66;42.35;94094.59;4994542;28;20056;-72
2022/05/15 04:50:42;;;;;;;3.63;2.13;;;;;;;18.77;42.37;94089.44;4992606;28;20413;-72
2022/05/15 04:53:07;;;;;;;2.45;2.00;;;;;;;18.83;41.95;94099.53;4997880;28;20578;-72
2022/05/15 04:55:33;;;;;;;3.55;2.00;;;;;;;18.88;41.92;94101.16;4991453;28;20030;-72
2022/05/15 04:57:58;;;;;;;5.03;2.72;;;;;;;18.86;41.80;94092.66;4998846;28;20038;-72
2022/05/15 05:00:24;;;;;;;4.38;2.45;;;;;;;18.89;41.74;94081.94;4989776;28;20033;-72
2022/05/15 05:02:49;;;;;;;4.60;3.13;;;;;;;18.92;42.35;94090.47;4997989;28;20428;-72
2022/05/15 05:05:16;;;;;;;3.00;2.10;;;;;;;19.08;41.84;94102.66;4997441;28;20096;-72
2022/05/15 05:07:41;;;;;;;2.22;1.98;;;;;;;19.08;41.26;94089.19;4993074;28;20213;-72
2022/05/15 05:10:09;;;;;;;5.50;2.10;;;;;;;19.10;41.33;94089.63;4990788;28;20049;-72
2022/05/15 05:12:36;;;;;;;4.70;2.00;;;;;;;19.14;41.70;94100.47;4989277;28;20096;-74
2022/05/15 05:15:02;;;;;;;3.78;1.98;;;;;;;19.16;41.81;94108.97;4986675;28;20088;-73
2022/05/15 05:17:27;;;;;;;6.20;2.42;;;;;;;19.23;40.86;94095.59;4996501;28;20076;-73
2022/05/15 05:19:53;;;;;;;3.05;2.08;;;;;;;19.11;41.95;94103.88;4984612;28;20526;-73
2022/05/15 05:22:18;;;;;;;4.18;2.38;;;;;;;19.17;41.85;94105.13;4959767;28;20045;-71
2022/05/15 05:24:43;;;;;;;3.97;2.28;;;;;;;19.21;41.85;94095.19;4967028;28;20085;-72
2022/05/15 05:27:13;;;;;;;3.30;2.53;;;;;;;19.41;41.44;94104.75;4970130;28;20050;-70
2022/05/15 05:29:38;;;;;;;2.53;2.08;;;;;;;19.30;42.15;94106.50;4979444;28;20061;-73
2022/05/15 05:32:04;;;;;;;3.53;2.25;;;;;;;19.47;42.11;94105.25;4974095;28;20242;-72
2022/05/15 05:34:30;;;;;;;3.40;2.33;;;;;;;19.44;41.16;94090.56;4973778;28;20495;-73
2022/05/15 05:36:55;;;;;;;5.05;2.55;;;;;;;19.51;41.07;94097.97;4962953;28;20129;-72
2022/05/15 05:39:21;;;;;;;4.35;2.22;;;;;;;19.42;41.90;94098.22;4972642;28;20045;-72
2022/05/15 05:41:47;;;;;;;4.00;2.88;;;;;;;19.47;40.62;94089.84;4970602;28;20525;-73
2022/05/15 05:44:12;;;;;;;5.85;3.05;;;;;;;19.30;41.00;94080.31;4970558;28;20044;-72
2022/05/15 05:46:38;;;;;;;4.35;2.25;;;;;;;19.27;41.05;94083.72;4977613;28;20050;-72
2022/05/15 05:49:03;;;;;;;3.08;2.53;;;;;;;18.94;40.93;94045.03;4977472;28;20042;-70
2022/05/15 05:51:28;;;;;;;2.53;2.30;;;;;;;19.23;41.30;94079.41;4967409;28;20046;-72
2022/05/15 05:53:54;;;;;;;3.15;2.75;;;;;;;19.21;40.96;94100.59;4963783;28;20038;-72
2022/05/15 05:56:19;;;;;;;8.32;2.83;;;;;;;19.35;41.14;94098.13;4977447;28;20018;-72
2022/05/15 05:58:45;;;;;;;3.58;2.30;;;;;;;19.39;41.38;94101.63;4968359;28;20522;-72
2022/05/15 06:01:11;;;;;;;3.25;2.40;;;;;;;19.33;41.67;94084.19;4976155;28;20034;-72
2022/05/15 06:06:24;;;;;;;2.75;2.10;;;;;;;19.31;41.02;94089.19;4972144;28;20045;-70
2022/05/15 06:08:49;;;;;;;4.05;2.65;;;;;;;19.36;41.25;94110.44;4978008;28;20030;-72
2022/05/15 06:11:15;;;;;;;3.42;1.90;;;;;;;19.35;41.26;94103.50;4968139;28;20450;-72
2022/05/15 06:13:40;;;;;;;3.25;2.65;;;;;;;19.30;41.30;94106.50;4976967;28;20554;-72
2022/05/15 06:16:07;;;;;;;6.13;2.95;;;;;;;19.44;41.48;94098.63;4977048;28;20038;-72
2022/05/15 06:18:33;;;;;;;2.92;2.47;;;;;;;19.57;41.83;94089.22;4971146;28;20039;-73
2022/05/15 06:20:58;;;;;;;5.93;2.30;;;;;;;19.73;40.61;94100.66;4976532;28;20448;-71
2022/05/15 06:23:24;;;;;;;3.42;2.00;;;;;;;19.69;40.15;94091.72;4971684;28;20503;-71
2022/05/15 06:25:49;;;;;;;3.78;2.33;;;;;;;19.82;39.41;94099.59;4978845;28;20487;-72
2022/05/15 06:28:15;;;;;;;3.35;2.03;;;;;;;19.90;40.16;94107.44;4981458;28;20510;-72
2022/05/15 06:30:40;;;;;;;2.72;1.73;;;;;;;;;;4988655;28;20030;-72
2022/05/15 06:33:07;;;;;;;4.37;2.03;;;;;;;19.90;37.22;94103.94;4994690;28;20048;-71
2022/05/15 06:35:33;;;;;;;1.85;1.60;;;;;;;19.91;36.58;94109.00;4983080;28;20342;-72
2022/05/15 06:38:06;;;;;;;3.40;1.58;;;;;;;19.85;37.18;94110.44;4985680;28;20053;-71
2022/05/15 06:40:32;;;;;;;2.58;1.63;;;;;;;19.91;37.03;94113.59;4989722;28;20541;-72
2022/05/15 06:42:57;;;;;;;5.20;1.88;;;;;;;19.76;36.64;94104.53;4989427;28;20112;-72
2022/05/15 06:45:24;;;;;;;3.53;1.30;;;;;;;19.66;36.82;94111.31;4990829;28;20426;-72
2022/05/15 06:47:49;;;;;;;5.45;1.60;;;;;;;19.69;36.75;94115.22;4989208;28;20054;-72
2022/05/15 06:50:14;;;;;;;3.78;1.55;;;;;;;19.64;37.15;94112.84;4990392;28;20695;-74
2022/05/15 06:52:40;;;;;;;4.80;2.05;;;;;;;19.43;36.87;94083.59;4991921;28;20046;-72
2022/05/15 06:55:11;;;;;;;1.30;1.20;;;;;;;19.61;37.07;94118.94;4988349;28;20728;-72
2022/05/15 06:57:38;;;;;;;3.50;1.65;;;;;;;19.50;37.10;94120.72;4997185;28;20395;-74
2022/05/15 07:00:10;;;;;;;3.05;1.25;;;;;;;19.44;36.23;94104.03;4982890;28;20490;-72
2022/05/15 07:02:36;;;;;;;4.72;1.60;;;;;;;19.57;37.75;94113.50;4996252;28;20041;-74
2022/05/15 07:05:02;;;;;;;4.65;1.60;;;;;;;19.51;37.08;94090.66;4988191;28;20263;-72
2022/05/15 07:07:28;;;;;;;3.13;2.25;;;;;;;19.63;37.45;94117.47;4983471;28;20107;-70
2022/05/15 07:09:54;;;;;;;2.42;1.73;;;;;;;19.65;37.41;94115.16;4991064;28;20125;-74
2022/05/15 07:12:20;;;;;;;7.63;2.05;;;;;;;19.75;37.83;94111.84;4989389;28;20040;-72
2022/05/15 07:14:45;;;;;;;4.32;1.48;;;;;;;19.72;38.27;94109.88;4987311;28;20022;-72
2022/05/15 07:17:11;;;;;;;3.50;2.45;;;;;;;19.70;38.76;94114.84;4993118;28;20414;-72
2022/05/15 07:19:36;;;;;;;2.15;1.95;;;;;;;19.51;38.42;94090.66;4975069;28;20030;-70
2022/05/15 07:22:02;;;;;;;2.78;1.65;;;;;;;19.59;38.95;94113.94;4971271;28;20459;-72
2022/05/15 07:24:27;;;;;;;2.33;1.80;;;;;;;19.51;39.27;94106.84;4979019;28;20403;-72
2022/05/15 07:26:55;;;;;;;4.20;2.85;;;;;;;19.39;39.60;94100.84;4961496;28;20439;-70
2022/05/15 07:29:24;;;;;;;7.63;2.47;;;;;;;19.44;39.89;94116.75;4966668;28;20057;-71
2022/05/15 07:31:51;;;;;;;6.28;2.53;;;;;;;19.34;40.51;94118.13;4967654;28;20030;-72
2022/05/15 07:34:17;;;;;;;3.80;1.88;;;;;;;19.45;40.57;94127.22;4952474;28;20485;-72
2022/05/15 07:36:43;;;;;;;3.85;2.30;;;;;;;19.53;40.94;94120.78;4979790;28;20070;-71
2022/05/15 07:39:08;;;;;;;3.53;2.63;;;;;;;19.31;40.93;94135.03;4996121;28;20110;-72
2022/05/15 07:41:34;;;;;;;3.97;2.15;;;;;;;19.47;41.94;94126.81;4978834;28;20101;-71
2022/05/15 07:43:59;;;;;;;6.45;2.42;;;;;;;19.46;40.93;94092.88;4984803;28;20050;-71
2022/05/15 07:46:25;;;;;;;3.17;2.47;;;;;;;19.73;40.32;94116.84;4966085;28;20074;-70
2022/05/15 07:48:50;;;;;;;3.30;1.88;;;;;;;19.70;40.57;94119.50;4975018;28;20180;-72
2022/05/15 07:51:16;;;;;;;1.88;1.45;;;;;;;19.67;38.21;94115.59;4964693;28;20034;-72
2022/05/15 07:53:41;;;;;;;3.35;2.03;;;;;;;19.38;37.90;94086.59;4975047;28;20479;-72
2022/05/15 07:56:12;;;;;;;4.30;1.83;;;;;;;19.52;38.21;94119.22;4978626;28;20038;-72
2022/05/15 07:58:39;;;;;;;4.20;2.08;;;;;;;19.19;37.92;94116.34;4973580;28;21216;-73
2022/05/15 08:01:05;;;;;;;1.33;1.23;;;;;;;19.29;38.23;94121.13;4969883;28;20038;-72
2022/05/15 08:03:39;;;;;;;1.65;1.38;;;;;;;19.25;38.54;94109.50;4979193;28;20114;-71
2022/05/15 08:08:50;;;;;;;8.63;3.72;;;;;;;18.98;37.93;94124.81;4992028;28;20196;-71
2022/05/15 08:11:16;;;;;;;4.47;1.95;;;;;;;19.04;38.14;94130.69;4990674;28;20459;-72
2022/05/15 08:13:41;;;;;;;3.58;1.85;;;;;;;18.96;38.42;94121.72;4991458;28;20029;-73
2022/05/15 08:16:08;;;;;;;2.15;1.85;;;;;;;19.05;38.83;94134.97;4996506;28;20849;-72
2022/05/15 08:24:02;;;;;;;4.25;1.70;;;;;;;19.09;39.95;94146.56;4986919;28;20037;-72
2022/05/15 08:26:28;;;;;;;3.90;2.67;;;;;;;19.05;40.10;94151.13;4999342;28;20067;-71
2022/05/15 08:28:55;;;;;;;2.30;1.80;;;;;;;19.08;38.45;94145.00;4982722;28;20038;-72
2022/05/15 08:31:22;;;;;;;3.00;1.70;;;;;;;18.83;37.91;94126.47;4984469;28;20128;-72
2022/05/15 08:33:48;;;;;;;2.65;1.65;;;;;;;19.10;38.51;94157.00;5000497;28;20056;-71
2022/05/15 08:36:15;;;;;;;5.80;2.33;;;;;;;19.05;38.56;94127.66;4980242;28;20041;-73
2022/05/15 08:38:40;;;;;;;4.38;1.70;;;;;;;18.80;37.09;94138.00;4992943;28;20097;-72
2022/05/15 08:41:06;;;;;;;3.85;1.90;;;;;;;18.87;38.20;94154.28;4995739;28;20045;-72
2022/05/15 08:43:41;;;;;;;5.93;1.35;;;;;;;19.03;38.61;94151.47;4994064;28;20033;-72
2022/05/15 08:46:21;;;;;;;3.25;1.85;;;;;;;18.68;37.79;94156.97;4979993;28;20145;-72
2022/05/15 08:48:48;;;;;;;2.85;1.83;;;;;;;18.85;38.70;94159.25;4974253;28;20038;-72
2022/05/15 08:51:13;;;;;;;2.85;1.50;;;;;;;18.87;37.64;94154.28;4974755;28;20030;-73
2022/05/15 08:53:43;;;;;;;6.60;1.75;;;;;;;18.78;36.79;94155.63;4971699;28;21172;-72
2022/05/15 08:56:12;;;;;;;1.90;1.48;;;;;;;18.57;37.90;94139.81;4974941;28;20026;-72
2022/05/15 08:58:37;;;;;;;2.65;1.65;;;;;;;18.84;37.26;94159.59;4972744;28;21929;-73
2022/05/15 09:01:08;;;;;;;4.45;1.73;;;;;;;18.92;37.18;94152.44;4977664;28;20050;-72
2022/05/15 09:03:37;;;;;;;2.42;1.55;;;;;;;18.98;37.51;94154.47;4973101;28;20038;-73
2022/05/15 09:06:08;;;;;;;4.32;1.52;;;;;;;18.98;37.02;94164.47;4967481;28;20736;-72
2022/05/15 09:08:58;;;;;;;1.55;1.45;;;;;;;18.88;36.17;94161.22;4980459;28;20117;-73
2022/05/15 09:11:36;;;;;;;1.65;1.50;;;;;;;18.93;36.82;94153.97;4967331;28;20046;-72
2022/05/15 09:14:21;;;;;;;5.43;1.45;;;;;;;18.95;36.83;94152.50;4971055;28;20138;-72
2022/05/15 09:16:56;;;;;;;3.63;1.25;;;;;;;19.10;36.82;94148.94;4982204;28;20117;-72
2022/05/15 09:19:22;;;;;;;1.73;1.25;;;;;;;19.25;36.97;94139.16;4967224;28;20042;-72
2022/05/15 09:21:53;;;;;;;1.80;1.42;;;;;;;19.26;36.12;94138.78;4975799;28;20100;-72
2022/05/15 09:24:40;;;;;;;3.05;1.40;;;;;;;19.08;35.34;94099.19;4973545;28;20708;-71
2022/05/15 09:27:18;;;;;;;2.42;1.30;;;;;;;19.36;34.77;94142.81;4972176;28;20045;-73
2022/05/15 09:29:54;;;;;;;1.75;1.00;;;;;;;19.41;35.35;94139.81;5000752;28;20072;-72
2022/05/15 09:32:38;;;;;;;6.85;1.77;;;;;;;19.13;34.89;94080.81;4975885;28;20042;-72
2022/05/15 09:35:16;;;;;;;2.00;1.60;;;;;;;19.20;35.28;94125.97;4973240;28;20051;-72
2022/05/15 09:44:05;;;;;;;6.70;1.60;;;;;;;19.35;36.27;94135.88;4932480;28;20071;-71
2022/05/15 09:46:30;;;;;;;1.40;1.05;;;;;;;19.49;36.23;94124.56;4971691;28;20050;-72
2022/05/15 09:49:24;;;;;;;3.15;1.85;;;;;;;19.59;36.56;94132.03;4966452;28;20034;-73
2022/05/15 09:51:52;;;;;;;3.17;1.70;;;;;;;19.54;35.31;94116.16;4976834;28;20061;-72
2022/05/15 09:54:33;;;;;;;12.73;1.50;;;;;;;19.74;35.44;94131.91;4996592;28;20030;-71
2022/05/15 09:57:27;;;;;;;1.85;1.20;;;;;;;19.60;34.79;94123.56;4997339;28;20029;-72
2022/05/15 09:59:55;;;;;;;3.22;1.88;;;;;;;19.61;34.24;94125.13;4978395;28;20046;-72
2022/05/15 10:02:24;;;;;;;3.25;1.83;;;;;;;19.58;35.37;94112.38;4995454;28;20101;-73
2022/05/15 10:04:51;;;;;;;3.30;1.58;;;;;;;19.51;35.13;94109.56;4976490;28;20041;-73
2022/05/15 10:07:35;;;;;;;3.42;1.67;;;;;;;19.81;35.27;94123.09;4993628;28;20530;-73
2022/05/15 10:10:19;;;;;;;2.00;1.52;;;;;;;19.86;34.21;94127.41;4996556;28;20096;-73
2022/05/15 10:12:47;;;;;;;1.63;1.52;;;;;;;19.94;34.51;94129.09;4986023;28;20044;-74
2022/05/15 10:15:15;;;;;;;5.45;1.70;;;;;;;19.97;34.19;94122.94;4987485;28;20150;-73
2022/05/15 10:17:53;;;;;;;2.97;1.40;;;;;;;20.04;33.90;94131.16;5000742;28;20037;-72
2022/05/15 10:20:29;;;;;;;3.30;1.67;;;;;;;20.08;34.49;94124.66;4983464;28;20045;-70
2022/05/15 10:23:15;;;;;;;1.52;1.40;;;;;;;20.25;33.58;94120.66;4991109;28;20042;-71
2022/05/15 10:25:49;;;;;;;2.17;1.30;;;;;;;20.38;34.01;94111.19;4984198;28;20085;-72
2022/05/15 10:28:27;;;;;;;2.60;1.42;;;;;;;20.53;34.05;94117.53;4983994;28;20040;-73
2022/05/15 10:31:21;;;;;;;3.72;1.50;;;;;;;20.61;33.97;94113.78;4987582;28;20041;-72
2022/05/15 10:33:50;;;;;;;3.28;1.33;;;;;;;20.74;33.87;94115.06;4998522;28;20433;-71
2022/05/15 10:36:27;;;;;;;4.93;1.35;;;;;;;20.65;32.96;94113.81;4985443;28;20038;-72
2022/05/15 10:39:04;;;;;;;2.30;1.80;;;;;;;20.74;34.17;94111.56;4986924;28;20556;-71
2022/05/15 10:41:45;;;;;;;1.40;1.30;;;;;;;20.83;34.17;94118.25;4973463;28;20052;-72
2022/05/15 10:44:47;;;;;;;1.85;1.30;;;;;;;20.89;32.91;94124.13;4972882;28;21127;-72
2022/05/15 10:47:32;;;;;;;1.80;1.20;;;;;;;20.43;31.72;94061.47;4968573;28;20293;-72
2022/05/15 10:50:18;;;;;;;4.75;1.40;;;;;;;20.48;31.55;94102.41;4969138;28;20061;-72
2022/05/15 10:53:00;;;;;;;9.30;1.60;;;;;;;20.72;32.27;94113.91;4973124;28;20062;-72
2022/05/15 10:58:30;;;;;;;3.38;1.40;;;;;;;20.83;32.17;94096.63;4982146;28;20096;-72
2022/05/15 11:01:25;;;;;;;2.03;1.75;;;;;;;20.97;32.91;94112.25;4997737;28;20113;-71
2022/05/15 11:04:10;;;;;;;3.28;1.70;;;;;;;21.01;31.88;94113.84;4984731;28;20048;-72
2022/05/15 11:06:57;;;;;;;1.95;1.33;;;;;;;21.05;32.49;94113.88;4986636;28;20074;-73
2022/05/15 11:09:45;;;;;;;2.15;1.95;;;;;;;21.14;32.89;94114.34;4962650;28;20030;-72
2022/05/15 11:12:44;;;;;;;1.98;1.45;;;;;;;21.06;33.24;94110.03;4957116;28;20046;-72
2022/05/15 11:15:28;;;;;;;2.10;1.60;;;;;;;21.11;33.87;94112.41;4994202;28;21077;-71
2022/05/15 11:18:05;;;;;;;4.05;2.05;;;;;;;21.16;33.37;94111.28;4991147;28;20033;-72
2022/05/15 11:20:39;;;;;;;2.58;1.77;;;;;;;21.18;33.07;94101.63;4986887;28;20021;-72
2022/05/15 11:23:12;;;;;;;1.73;1.30;;;;;;;21.11;33.23;94101.56;5001399;28;20068;-72
2022/05/15 11:25:49;;;;;;;1.58;1.20;;;;;;;21.15;33.22;94105.09;4992943;28;20041;-72
2022/05/15 11:28:20;;;;;;;1.63;1.20;;;;;;;21.22;32.59;94105.13;5006166;28;20089;-71
2022/05/15 11:30:48;;;;;;;1.63;1.20;;;;;;;21.33;32.74;94078.97;4993247;28;20117;-72
2022/05/15 11:33:17;;;;;;;2.22;1.75;;;;;;;21.63;32.05;94094.28;4987969;28;20588;-72
2022/05/15 11:36:08;;;;;;;3.50;1.27;;;;;;;21.76;32.47;94092.81;4982773;28;20026;-72
2022/05/15 11:38:56;;;;;;;1.50;1.35;;;;;;;21.59;33.04;94063.72;4991852;28;20596;-72
2022/05/15 11:41:34;;;;;;;1.90;1.60;;;;;;;21.76;32.55;94087.41;4991806;28;20414;-72
2022/05/15 11:44:04;;;;;;;3.50;1.52;;;;;;;21.62;31.21;94090.78;4993008;28;20473;-72
2022/05/15 11:46:45;;;;;;;1.77;1.13;;;;;;;21.74;35.07;94084.31;4983742;28;20045;-72
2022/05/15 11:49:38;;;;;;;2.28;1.58;;;;;;;21.84;31.50;94081.69;5001192;28;20145;-72
2022/05/15 11:52:03;;;;;;;3.10;1.60;;;;;;;21.85;32.35;94087.88;5007400;28;20045;-72
2022/05/15 11:54:40;;;;;;;3.63;2.05;;;;;;;21.84;32.99;94080.91;4997417;28;20038;-72
2022/05/15 11:57:11;;;;;;;2.10;1.35;;;;;;;21.97;32.52;94074.00;4990370;28;20040;-72
2022/05/15 11:59:50;;;;;;;6.40;2.53;;;;;;;21.91;32.57;94070.09;4992283;28;20505;-73
2022/05/15 12:02:51;;;;;;;1.90;1.35;;;;;;;22.11;33.03;94079.50;4997334;28;20054;-72
2022/05/15 12:05:24;;;;;;;4.93;1.67;;;;;;;21.98;31.81;94069.38;4968529;28;20046;-72
2022/05/15 12:07:52;;;;;;;2.17;1.52;;;;;;;22.07;32.95;94072.50;4989187;28;20042;-72